Time;durP1;ratioP1;P1;durP2;ratioP2;P2;SDS_P1;SDS_P2;PMS_P1;PMS_P2;Temp;Humidity;BMP_temperature;BMP_pressure;BME280_temperature;BME280_humidity;BME280_pressure;Samples;Min_cycle;Max_cycle;Signal;HPM_P1;HPM_P2
2022/04/01 00:01:05;;;;;;;;;0.00;0.00;;;;;3.75;65.86;100255.09;4978528;28;46417;-69
2022/04/01 00:03:30;;;;;;;;;5.75;0.75;;;;;3.78;66.15;100233.66;4978919;28;45360;-70
2022/04/01 00:05:56;;;;;;;;;6.75;1.00;;;;;3.82;66.45;100220.81;4978580;28;45223;-69
2022/04/01 00:08:21;;;;;;;;;1.50;0.00;;;;;3.78;65.27;100223.38;4978730;28;45206;-72
2022/04/01 00:10:46;;;;;;;;;0.00;0.00;;;;;3.77;65.71;100247.38;4978437;28;45201;-72
2022/04/01 00:13:13;;;;;;;;;0.00;0.00;;;;;3.76;65.62;100209.69;4978519;28;45242;-73
2022/04/01 00:15:38;;;;;;;;;4.25;0.75;;;;;3.73;65.47;100218.28;4978501;28;45498;-73
2022/04/01 00:18:04;;;;;;;;;1.00;1.00;;;;;3.70;65.96;100230.31;4978434;28;45228;-73
2022/04/01 00:20:30;;;;;;;;;2.00;1.00;;;;;3.70;65.62;100215.75;4966234;28;46317;-73
2022/04/01 00:22:56;;;;;;;;;0.00;0.00;;;;;3.71;65.67;100216.59;4978608;28;45410;-73
2022/04/01 00:25:21;;;;;;;;;1.50;1.50;;;;;3.64;66.22;100210.66;4978325;28;45495;-74
2022/04/01 00:27:46;;;;;;;;;0.00;0.00;;;;;3.64;66.06;100213.25;4978475;28;45440;-73
2022/04/01 00:30:12;;;;;;;;;1.25;1.00;;;;;3.64;66.19;100210.66;4964922;28;45351;-70
2022/04/01 00:32:38;;;;;;;;;4.00;2.00;;;;;3.69;66.78;100208.06;4978481;28;45407;-70
2022/04/01 00:35:04;;;;;;;;;0.75;0.75;;;;;3.70;65.74;100220.88;4977933;28;45354;-69
2022/04/01 00:37:30;;;;;;;;;1.75;1.00;;;;;3.64;66.27;100201.25;4978293;28;45289;-69
2022/04/01 00:39:55;;;;;;;;;4.25;1.50;;;;;3.63;66.35;100198.69;4977965;28;45433;-73
2022/04/01 00:42:21;;;;;;;;;2.25;1.25;;;;;3.58;66.79;100196.13;4978436;28;45259;-72
2022/04/01 00:44:46;;;;;;;;;5.00;1.00;;;;;3.68;66.27;100209.78;4978065;28;45227;-72
2022/04/01 00:47:14;;;;;;;;;4.00;1.00;;;;;3.71;66.65;100196.91;4978301;28;45242;-73
2022/04/01 00:49:42;;;;;;;;;2.00;2.00;;;;;3.65;67.19;100207.25;4977807;28;46539;-74
2022/04/01 00:52:10;;;;;;;;;4.75;1.00;;;;;3.70;66.82;100205.47;4978008;28;45535;-73
2022/04/01 00:54:36;;;;;;;;;0.00;0.00;;;;;3.77;66.54;100195.97;4977744;28;45484;-74
2022/04/01 00:57:04;;;;;;;;;1.00;1.00;;;;;3.78;67.40;100195.13;4976975;28;45334;-72
2022/04/01 00:59:29;;;;;;;;;1.75;1.00;;;;;3.75;66.66;100172.88;4977615;28;47583;-69
2022/04/01 01:01:55;;;;;;;;;4.00;2.00;;;;;3.76;67.39;100179.72;4978070;28;45421;-70
2022/04/01 01:04:21;;;;;;;;;0.00;0.00;;;;;3.65;66.89;100169.53;4977744;28;45311;-69
2022/04/01 01:06:51;;;;;;;;;1.50;0.25;;;;;3.66;67.98;100165.25;4977845;28;45426;-69
2022/04/01 01:09:18;;;;;;;;;0.00;0.00;;;;;3.75;67.07;100172.03;4977767;28;46036;-69
2022/04/01 01:11:45;;;;;;;;;2.00;2.00;;;;;3.66;67.15;100158.41;4977956;28;45337;-69
2022/04/01 01:14:13;;;;;;;;;0.00;0.00;;;;;3.66;68.22;100167.81;4977700;28;45185;-68
2022/04/01 01:16:46;;;;;;;;;1.75;1.50;;;;;3.62;67.34;100146.44;4977863;28;45501;-68
2022/04/01 01:19:17;;;;;;;;;0.00;0.00;;;;;3.64;67.79;100143.88;4971247;28;45299;-68
2022/04/01 01:21:45;;;;;;;;;0.50;0.50;;;;;3.68;67.68;100142.97;4970701;28;45256;-68
2022/04/01 01:24:15;;;;;;;;;1.00;1.00;;;;;3.75;68.05;100133.47;4977785;28;45358;-68
2022/04/01 01:26:50;;;;;;;;;4.25;1.00;;;;;3.77;68.20;100136.88;4977495;28;45480;-69
2022/04/01 01:29:22;;;;;;;;;0.75;0.75;;;;;3.81;68.10;100123.16;4958314;28;47231;-70
2022/04/01 01:31:48;;;;;;;;;0.00;0.00;;;;;3.80;69.01;100117.13;4974394;28;46540;-70
2022/04/01 01:34:14;;;;;;;;;2.00;0.00;;;;;3.84;69.50;100108.56;4977812;28;45307;-70
2022/04/01 01:36:39;;;;;;;;;0.00;0.00;;;;;3.89;69.43;100111.06;4977274;28;45303;-71
2022/04/01 01:39:05;;;;;;;;;4.00;1.25;;;;;3.91;68.65;100112.75;4976125;28;47035;-70
2022/04/01 01:41:30;;;;;;;;;0.00;0.00;;;;;3.94;70.29;100107.56;4976028;28;45441;-70
2022/04/01 01:43:56;;;;;;;;;0.00;0.00;;;;;3.96;71.04;100116.13;4977581;28;45205;-70
2022/04/01 01:46:21;;;;;;;;;0.00;0.00;;;;;3.94;71.79;100101.59;4977343;28;45242;-70
2022/04/01 01:48:47;;;;;;;;;2.00;1.00;;;;;3.73;73.06;100094.94;4977263;28;46344;-70
2022/04/01 01:56:42;;;;;;;;;0.00;0.00;;;;;3.76;72.70;100092.34;4964268;28;45259;-70
2022/04/01 01:59:11;;;;;;;;;0.00;0.00;;;;;3.75;73.97;100082.09;4976773;28;46245;-69
2022/04/01 02:01:39;;;;;;;;;0.00;0.00;;;;;3.63;73.87;100076.22;4977268;28;45450;-69
2022/04/01 02:04:05;;;;;;;;;1.00;0.00;;;;;3.66;72.80;100072.75;4976887;28;45314;-69
2022/04/01 02:06:31;;;;;;;;;1.00;0.00;;;;;3.62;73.62;100081.38;4975802;28;45321;-69
2022/04/01 02:08:58;;;;;;;;;0.50;0.50;;;;;3.59;73.11;100068.53;4979380;28;46138;-69
2022/04/01 02:11:24;;;;;;;;;3.50;0.00;;;;;3.49;74.37;100070.34;4980086;28;45176;-69
2022/04/01 02:13:50;;;;;;;;;0.75;0.75;;;;;3.55;73.92;100075.41;4979798;28;45248;-70
2022/04/01 02:16:17;;;;;;;;;1.00;1.00;;;;;3.59;74.90;100073.66;4979779;28;45504;-70
2022/04/01 02:18:42;;;;;;;;;1.25;1.00;;;;;3.57;74.90;100072.84;4976808;28;46242;-72
2022/04/01 02:21:11;;;;;;;;;2.00;0.00;;;;;3.56;75.63;100060.84;4970573;28;45228;-73
2022/04/01 02:23:41;;;;;;;;;0.00;0.00;;;;;3.57;76.71;100068.53;4978450;28;45623;-74
2022/04/01 02:26:08;;;;;;;;;2.75;1.00;;;;;3.58;78.20;100053.97;4977408;28;45461;-74
2022/04/01 02:28:36;;;;;;;;;2.00;0.00;;;;;3.57;77.78;100055.69;4973848;28;45465;-73
2022/04/01 02:31:03;;;;;;;;;3.25;0.50;;;;;3.58;78.32;100057.41;4968184;28;45415;-73
2022/04/01 02:33:29;;;;;;;;;0.50;0.50;;;;;3.57;78.43;100050.56;4977338;28;45710;-74
2022/04/01 02:35:57;;;;;;;;;1.00;1.00;;;;;3.51;79.40;100050.63;4977474;28;45466;-76
2022/04/01 02:38:27;;;;;;;;;2.00;1.00;;;;;3.46;79.62;100054.97;4977073;27;46189;-74
2022/04/01 02:40:54;;;;;;;;;1.75;1.00;;;;;3.43;80.38;100049.03;4977381;28;45493;-75
2022/04/01 02:43:20;;;;;;;;;1.25;1.00;;;;;3.45;80.59;100044.72;4977126;28;45641;-74
2022/04/01 02:45:50;;;;;;;;;0.00;0.00;;;;;3.39;82.47;100044.75;4977325;28;45617;-76
2022/04/01 02:48:17;;;;;;;;;1.00;1.00;;;;;3.34;82.79;100042.22;4976897;28;45495;-70
2022/04/01 02:50:44;;;;;;;;;3.50;2.00;;;;;3.23;83.76;100033.78;4977304;28;45843;-72
2022/04/01 02:53:10;;;;;;;;;1.00;1.00;;;;;3.27;82.50;100050.88;4977472;28;45651;-70
2022/04/01 02:55:37;;;;;;;;;2.00;2.00;;;;;3.22;83.45;100057.78;4978763;28;45465;-70
2022/04/01 02:58:05;;;;;;;;;5.75;1.00;;;;;3.16;84.54;100038.13;4978417;28;46057;-70
2022/04/01 03:00:30;;;;;;;;;1.00;1.00;;;;;3.20;84.18;100028.66;4979526;28;45733;-71
2022/04/01 03:02:56;;;;;;;;;4.50;1.50;;;;;3.09;86.15;100035.63;4979284;28;45365;-78
2022/04/01 03:05:21;;;;;;;;;5.25;2.25;;;;;3.01;86.80;100039.13;4979217;27;45352;-73
2022/04/01 03:07:47;;;;;;;;;0.00;0.00;;;;;3.01;86.40;100028.84;4972568;28;45500;-71
2022/04/01 03:10:12;;;;;;;;;1.00;1.00;;;;;3.06;85.68;100021.09;4978704;28;45259;-71
2022/04/01 03:12:38;;;;;;;;;0.00;0.00;;;;;3.10;85.19;100022.78;4979180;28;45454;-71
2022/04/01 03:15:04;;;;;;;;;1.50;0.50;;;;;3.13;85.84;100017.59;4978995;28;45322;-72
2022/04/01 03:17:31;;;;;;;;;1.00;0.00;;;;;3.08;85.65;100013.38;4978932;28;45163;-76
2022/04/01 03:19:59;;;;;;;;;3.50;1.00;;;;;3.12;85.37;100015.91;4978501;28;45519;-76
2022/04/01 03:22:25;;;;;;;;;1.00;1.00;;;;;3.17;86.53;100013.28;4981153;28;45446;-73
2022/04/01 03:24:51;;;;;;;;;3.75;0.25;;;;;3.14;86.92;100014.16;4979094;28;45496;-74
2022/04/01 03:27:17;;;;;;;;;2.50;1.00;;;;;3.01;87.46;100002.34;4977578;28;48134;-74
2022/04/01 03:29:42;;;;;;;;;0.00;0.00;;;;;3.05;87.81;100006.56;4979328;28;45373;-74
2022/04/01 03:32:07;;;;;;;;;1.75;1.75;;;;;3.07;86.00;99996.28;4979087;28;45337;-76
2022/04/01 03:34:33;;;;;;;;;8.75;1.00;;;;;3.08;86.99;100003.97;4978913;28;45553;-76
2022/04/01 03:36:58;;;;;;;;;0.00;0.00;;;;;3.02;86.86;99993.75;4978621;28;45338;-74
2022/04/01 03:39:24;;;;;;;;;0.00;0.00;;;;;3.03;87.06;99993.75;4978894;28;45238;-76
2022/04/01 03:41:50;;;;;;;;;2.00;0.00;;;;;3.10;86.55;100007.38;4972760;28;45173;-75
2022/04/01 03:44:17;;;;;;;;;1.00;1.00;;;;;3.12;86.85;100000.50;4972026;28;45253;-76
2022/04/01 03:47:07;;;;;;;;;1.00;0.00;;;;;3.13;87.11;99998.78;4978518;28;45393;-75
2022/04/01 03:49:33;;;;;;;;;0.50;0.50;;;;;3.11;86.45;99998.81;4978570;28;45241;-75
2022/04/01 03:52:01;;;;;;;;;1.25;0.00;;;;;3.11;86.58;99992.81;4971103;28;45350;-71
2022/04/01 03:54:27;;;;;;;;;3.25;0.00;;;;;3.15;86.94;99984.22;4997740;28;45382;-71
2022/04/01 03:57:01;;;;;;;;;0.75;0.25;;;;;3.19;85.62;100001.28;4969094;28;47849;-70
2022/04/01 03:59:40;;;;;;;;;0.00;0.00;;;;;3.05;86.34;99986.03;4964650;28;45734;-71
2022/04/01 04:02:08;;;;;;;;;0.00;0.00;;;;;3.15;85.73;99994.47;4969176;28;45482;-72
2022/04/01 04:04:36;;;;;;;;;0.75;0.75;;;;;3.16;85.92;99997.03;4966841;28;45628;-72
2022/04/01 04:07:01;;;;;;;;;0.50;0.50;;;;;3.21;85.46;99991.88;4968862;28;45413;-72
2022/04/01 04:09:28;;;;;;;;;2.00;0.00;;;;;3.31;84.58;99996.03;4966807;28;45304;-72
2022/04/01 04:11:54;;;;;;;;;1.00;1.00;;;;;3.35;84.74;99995.13;4967088;28;45342;-72
2022/04/01 04:14:20;;;;;;;;;1.75;1.75;;;;;3.29;84.79;100001.19;4966983;28;45364;-72
2022/04/01 04:16:47;;;;;;;;;2.00;2.00;;;;;3.24;84.61;99991.84;4968315;28;45330;-71
2022/04/01 04:19:12;;;;;;;;;1.00;1.00;;;;;3.29;84.21;100001.19;4968055;28;45760;-71
2022/04/01 04:21:49;;;;;;;;;0.00;0.00;;;;;3.32;83.38;99993.47;4968712;28;45453;-73
2022/04/01 04:24:24;;;;;;;;;1.00;1.00;;;;;3.35;84.15;100001.13;4965919;28;45412;-71
2022/04/01 04:26:51;;;;;;;;;1.75;1.75;;;;;3.36;82.69;100001.97;4968799;28;46375;-70
2022/04/01 04:29:18;;;;;;;;;0.50;0.50;;;;;3.31;83.02;99998.63;4966170;28;45541;-69
2022/04/01 04:31:59;;;;;;;;;1.00;1.00;;;;;3.31;83.43;100001.19;4966194;28;45488;-69
2022/04/01 04:34:30;;;;;;;;;1.00;1.00;;;;;3.37;82.48;99985.69;4966710;28;45324;-64
2022/04/01 04:36:57;;;;;;;;;1.50;1.25;;;;;3.31;82.22;100002.03;4967829;28;45402;-61
2022/04/01 04:39:31;;;;;;;;;1.75;1.75;;;;;3.31;82.64;100002.03;4967160;28;45496;-60
2022/04/01 04:41:58;;;;;;;;;4.00;2.00;;;;;3.38;83.00;100001.97;4967251;28;45403;-61
2022/04/01 04:44:25;;;;;;;;;1.50;1.00;;;;;3.34;82.88;100019.97;4968362;28;45659;-61
2022/04/01 04:46:52;;;;;;;;;0.00;0.00;;;;;3.36;81.82;100015.66;4965732;28;46178;-61
2022/04/01 04:49:18;;;;;;;;;7.75;2.00;;;;;3.37;83.26;100013.94;4966907;28;45344;-61
2022/04/01 04:51:47;;;;;;;;;1.00;1.00;;;;;3.43;82.34;100007.94;4967478;28;45306;-62
2022/04/01 04:54:14;;;;;;;;;0.00;0.00;;;;;3.40;81.34;100018.19;4967237;28;45309;-61
2022/04/01 04:56:41;;;;;;;;;0.25;0.25;;;;;3.37;81.33;100011.38;4966962;28;46217;-62
2022/04/01 04:59:08;;;;;;;;;0.00;0.00;;;;;3.41;81.14;100023.34;4967144;28;45386;-62
2022/04/01 05:01:38;;;;;;;;;2.00;2.00;;;;;3.45;81.57;100029.31;4967174;28;45326;-62
2022/04/01 05:04:29;;;;;;;;;1.00;1.00;;;;;3.45;81.14;100025.03;4966410;28;45458;-61
2022/04/01 05:07:34;;;;;;;;;3.50;1.50;;;;;3.42;81.21;100029.34;4966413;28;47066;-61
2022/04/01 05:10:07;;;;;;;;;2.00;2.00;;;;;3.44;80.57;100045.59;4966409;28;45377;-61
2022/04/01 05:13:10;;;;;;;;;2.00;2.00;;;;;3.49;80.72;100038.69;4967897;28;45358;-62
2022/04/01 05:15:37;;;;;;;;;2.00;1.75;;;;;3.45;80.27;100045.56;4964973;28;45410;-61
2022/04/01 05:18:14;;;;;;;;;4.00;3.50;;;;;3.41;79.82;100051.59;4965613;28;45353;-61
2022/04/01 05:20:51;;;;;;;;;5.00;2.00;;;;;3.34;79.23;100037.09;4966380;28;45828;-62
2022/04/01 05:23:34;;;;;;;;;5.00;1.00;;;;;3.39;79.32;100057.59;4968544;28;45358;-62
2022/04/01 05:26:12;;;;;;;;;1.00;1.00;;;;;3.35;78.76;100072.19;4968515;28;45438;-63
2022/04/01 05:28:51;;;;;;;;;1.75;1.75;;;;;3.31;78.92;100068.78;4972969;28;45268;-60
2022/04/01 05:31:25;;;;;;;;;1.25;1.25;;;;;3.34;80.09;100071.34;4970170;28;45464;-60
2022/04/01 05:34:11;;;;;;;;;4.00;4.00;;;;;3.37;79.69;100057.59;4976459;28;45507;-60
2022/04/01 05:36:37;;;;;;;;;1.00;1.00;;;;;3.38;79.93;100069.59;4993384;28;45387;-61
2022/04/01 05:39:04;;;;;;;;;2.00;1.00;;;;;3.35;79.87;100105.56;4976900;28;45326;-59
2022/04/01 05:41:30;;;;;;;;;1.00;1.00;;;;;3.34;80.36;100065.34;4976755;28;45330;-59
2022/04/01 05:43:57;;;;;;;;;2.00;2.00;;;;;3.29;80.09;100077.38;4976776;28;45432;-59
2022/04/01 05:46:25;;;;;;;;;4.00;2.00;;;;;3.29;79.97;100065.41;4976499;28;45217;-59
2022/04/01 05:48:53;;;;;;;;;2.00;1.25;;;;;3.26;79.75;100085.13;4976838;28;47191;-59
2022/04/01 05:51:19;;;;;;;;;6.50;4.00;;;;;3.28;80.46;100091.09;4976156;28;45552;-60
2022/04/01 05:53:46;;;;;;;;;1.25;1.25;;;;;3.21;80.63;100098.00;4977266;28;45318;-60
2022/04/01 05:56:14;;;;;;;;;2.00;2.00;;;;;3.10;81.28;100110.06;4975988;28;45206;-60
2022/04/01 05:58:40;;;;;;;;;4.50;2.00;;;;;2.99;82.34;100096.44;4976657;28;46318;-65
2022/04/01 06:01:34;;;;;;;;;6.00;4.75;;;;;2.96;83.91;100087.03;4976761;28;45173;-62
2022/04/01 06:04:22;;;;;;;;;3.25;3.00;;;;;2.97;82.25;100098.16;4981476;28;45271;-61
2022/04/01 06:06:49;;;;;;;;;4.00;1.00;;;;;2.96;82.92;100091.31;4974374;28;45393;-61
2022/04/01 06:09:33;;;;;;;;;3.00;3.00;;;;;2.94;84.16;100103.31;4976219;28;45366;-61
2022/04/01 06:12:04;;;;;;;;;0.50;0.50;;;;;2.89;84.68;100098.22;4974815;28;45757;-60
2022/04/01 06:14:40;;;;;;;;;2.00;2.00;;;;;2.86;85.87;100099.97;4976092;28;45237;-61
2022/04/01 06:17:11;;;;;;;;;1.25;1.25;;;;;2.86;86.10;100118.78;4976589;28;45437;-62
2022/04/01 06:19:45;;;;;;;;;3.00;3.00;;;;;2.77;87.05;100134.19;4967111;28;46109;-62
2022/04/01 06:22:16;;;;;;;;;5.00;5.00;;;;;2.65;87.47;100122.31;4974488;28;45404;-62
2022/04/01 06:24:41;;;;;;;;;5.00;4.00;;;;;2.57;89.01;100123.19;4976872;27;45312;-63
2022/04/01 06:27:11;;;;;;;;;4.00;4.00;;;;;2.56;88.50;100132.59;4976426;28;45375;-62
2022/04/01 06:29:39;;;;;;;;;6.25;5.00;;;;;2.55;89.16;100124.91;4976344;28;45458;-61
2022/04/01 06:32:18;;;;;;;;;5.50;2.00;;;;;2.57;89.33;100133.44;4976134;28;45703;-62
2022/04/01 06:35:20;;;;;;;;;4.00;4.00;;;;;2.55;89.72;100130.03;4976167;28;45340;-63
2022/04/01 06:38:06;;;;;;;;;7.50;7.00;;;;;2.47;88.13;100136.94;4969470;28;45507;-63
2022/04/01 06:40:43;;;;;;;;;5.00;5.00;;;;;2.49;90.69;100136.06;4965797;28;45437;-62
2022/04/01 06:43:08;;;;;;;;;10.25;7.25;;;;;2.45;91.10;100162.59;4975999;28;45328;-63
2022/04/01 06:45:33;;;;;;;;;10.75;5.50;;;;;2.41;90.93;100150.63;4976509;28;45449;-63
2022/04/01 06:47:59;;;;;;;;;7.50;7.00;;;;;2.39;90.79;100142.94;4976048;28;45452;-62
2022/04/01 06:50:24;;;;;;;;;10.75;7.50;;;;;2.43;91.01;100151.50;4975923;28;46329;-63
2022/04/01 06:52:50;;;;;;;;;10.00;9.25;;;;;2.46;94.45;100154.03;4975909;28;45410;-63
2022/04/01 06:55:15;;;;;;;;;8.00;8.00;;;;;2.41;96.71;100155.78;4979566;28;45452;-63
2022/04/01 06:57:42;;;;;;;;;5.00;5.00;;;;;2.34;96.28;100162.63;4977926;28;45311;-63
2022/04/01 07:00:11;;;;;;;;;9.25;7.00;;;;;2.32;96.03;100168.59;4979003;28;46266;-63
2022/04/01 07:02:37;;;;;;;;;5.50;5.25;;;;;2.30;96.57;100162.63;4978796;28;45682;-63
2022/04/01 07:05:03;;;;;;;;;9.75;6.75;;;;;2.23;95.46;100171.22;4978813;28;45252;-63
2022/04/01 07:07:28;;;;;;;;;7.75;7.25;;;;;2.23;94.29;100169.50;4979108;28;45312;-64
2022/04/01 07:09:54;;;;;;;;;8.00;7.75;;;;;2.28;93.96;100166.91;4979066;28;46347;-63
2022/04/01 07:12:20;;;;;;;;;11.25;7.75;;;;;2.26;94.22;100160.94;4978646;27;45365;-63
2022/04/01 07:14:45;;;;;;;;;7.00;4.00;;;;;2.27;93.97;100173.75;4978939;28;45472;-63
2022/04/01 07:17:10;;;;;;;;;10.50;7.50;;;;;2.27;94.92;100173.75;4979022;28;45291;-63
2022/04/01 07:19:36;;;;;;;;;11.00;7.75;;;;;2.29;95.25;100176.31;4970053;28;46898;-63
2022/04/01 07:22:01;;;;;;;;;9.75;7.00;;;;;2.27;94.89;100178.03;4974731;28;45393;-63
2022/04/01 07:24:27;;;;;;;;;9.25;8.00;;;;;2.26;95.93;100179.75;4979120;28;45203;-63
2022/04/01 07:26:52;;;;;;;;;10.00;6.75;;;;;2.24;95.45;100191.72;4978712;28;45364;-63
2022/04/01 07:29:18;;;;;;;;;9.50;7.00;;;;;2.26;96.22;100182.31;4981216;28;46042;-63
2022/04/01 07:34:33;;;;;;;;;15.25;10.00;;;;;2.30;96.64;100195.97;4978798;28;45429;-64
2022/04/01 07:36:59;;;;;;;;;10.00;10.00;;;;;2.32;96.11;100200.22;4978540;28;45410;-64
2022/04/01 07:39:25;;;;;;;;;11.25;11.25;;;;;2.34;96.07;100206.19;4978581;28;45402;-63
2022/04/01 07:41:51;;;;;;;;;12.75;11.00;;;;;2.32;96.05;100194.25;4978294;28;45390;-64
2022/04/01 07:44:16;;;;;;;;;9.50;5.75;;;;;2.39;96.67;100191.66;4978647;28;45343;-64
2022/04/01 07:46:42;;;;;;;;;4.00;4.00;;;;;2.42;94.55;100191.66;4978325;28;45571;-63
2022/04/01 07:49:07;;;;;;;;;11.00;6.25;;;;;2.43;94.65;100202.78;4978367;28;46349;-63
2022/04/01 07:51:32;;;;;;;;;11.00;10.00;;;;;2.43;94.32;100213.03;4978282;28;45209;-64
2022/04/01 07:53:58;;;;;;;;;9.75;9.25;;;;;2.41;94.28;100209.63;4978862;28;45205;-63
2022/04/01 07:56:30;;;;;;;;;8.25;8.00;;;;;2.40;94.63;100219.03;4977721;28;45227;-63
2022/04/01 07:58:58;;;;;;;;;7.50;7.50;;;;;2.40;94.63;100213.91;4978513;28;46350;-64
2022/04/01 08:01:24;;;;;;;;;10.00;7.25;;;;;2.43;94.40;100221.56;4978364;28;45279;-63
2022/04/01 08:03:49;;;;;;;;;21.00;14.00;;;;;2.44;93.73;100232.69;4978374;28;45166;-64
2022/04/01 08:06:15;;;;;;;;;10.75;10.75;;;;;2.49;94.28;100219.84;4976883;28;45662;-63
2022/04/01 08:08:41;;;;;;;;;16.25;14.50;;;;;2.49;94.03;100228.38;4978362;28;46220;-63
2022/04/01 08:11:06;;;;;;;;;10.00;6.25;;;;;2.45;93.47;100226.69;4978263;28;45220;-63
2022/04/01 08:13:33;;;;;;;;;15.25;10.25;;;;;2.49;93.77;100233.53;4978385;28;45248;-65
2022/04/01 08:15:58;;;;;;;;;13.50;11.50;;;;;2.53;94.43;100245.47;4977668;28;45267;-64
2022/04/01 08:18:23;;;;;;;;;16.50;14.00;;;;;2.54;93.22;100238.63;4977928;28;45410;-64
2022/04/01 08:20:49;;;;;;;;;9.33;8.67;;;;;2.54;93.32;100262.56;4965946;28;45399;-64
2022/04/01 08:23:14;;;;;;;;;12.25;10.50;;;;;2.52;92.88;100246.34;4978564;28;45323;-63
2022/04/01 08:25:40;;;;;;;;;10.00;10.00;;;;;2.53;93.09;100252.31;4978029;28;45666;-63
2022/04/01 08:28:05;;;;;;;;;17.25;12.50;;;;;2.53;94.36;100267.69;4977792;28;46438;-63
2022/04/01 08:30:32;;;;;;;;;3.50;1.75;;;;;2.53;92.13;100260.00;4965061;28;45270;-63
2022/04/01 08:32:58;;;;;;;;;16.50;10.50;;;;;2.50;91.02;100281.38;4978009;28;45224;-63
2022/04/01 08:35:23;;;;;;;;;14.50;9.25;;;;;2.50;92.36;100281.38;4978027;28;45540;-63
2022/04/01 08:37:49;;;;;;;;;16.00;8.75;;;;;2.49;92.67;100292.50;4978009;28;46021;-63
2022/04/01 08:40:15;;;;;;;;;6.75;5.50;;;;;2.53;92.46;100296.75;4977868;28;45271;-63
2022/04/01 08:42:47;;;;;;;;;15.75;10.50;;;;;2.53;91.77;100289.06;4977845;28;45292;-63
2022/04/01 08:45:12;;;;;;;;;2.25;2.25;;;;;2.59;93.24;100285.63;4977839;28;45215;-63
2022/04/01 08:47:38;;;;;;;;;10.25;10.00;;;;;2.62;92.36;100291.63;4977803;28;46133;-63
2022/04/01 08:50:05;;;;;;;;;15.75;11.75;;;;;2.66;92.01;100313.00;4977514;28;45317;-63
2022/04/01 08:52:30;;;;;;;;;13.75;12.50;;;;;2.68;91.61;100312.13;4977861;28;45278;-62
2022/04/01 08:55:03;;;;;;;;;15.75;15.75;;;;;2.72;91.75;100306.13;4977709;28;45288;-62
2022/04/01 08:57:43;;;;;;;;;8.50;5.50;;;;;2.68;90.10;100289.03;4976744;28;47065;-63
2022/04/01 09:00:11;;;;;;;;;11.75;10.50;;;;;2.70;91.69;100332.66;4977834;28;45384;-64
2022/04/01 09:02:36;;;;;;;;;6.75;4.50;;;;;2.74;90.86;100322.38;4977553;28;45321;-64
2022/04/01 09:05:07;;;;;;;;;18.00;15.50;;;;;2.78;90.71;100330.06;4977737;28;45212;-64
2022/04/01 09:07:32;;;;;;;;;9.50;7.00;;;;;2.83;90.39;100325.78;4977229;28;47665;-64
2022/04/01 09:10:04;;;;;;;;;14.25;10.00;;;;;2.80;89.08;100338.59;4977748;28;45369;-63
2022/04/01 09:12:29;;;;;;;;;17.75;14.00;;;;;2.82;91.24;100342.03;4977299;28;45247;-63
2022/04/01 09:14:56;;;;;;;;;5.75;5.00;;;;;2.71;87.99;100354.88;4977824;28;45279;-62
2022/04/01 09:17:22;;;;;;;;;11.25;10.50;;;;;2.70;90.00;100348.03;4977022;28;46104;-62
2022/04/01 09:19:49;;;;;;;;;13.00;11.50;;;;;2.78;90.68;100353.16;4967528;28;45835;-62
2022/04/01 09:22:24;;;;;;;;;13.50;10.75;;;;;2.78;88.68;100346.31;4977382;28;45310;-64
2022/04/01 09:25:08;;;;;;;;;10.50;10.50;;;;;2.80;89.16;100365.13;4977521;28;45424;-64
2022/04/01 09:27:52;;;;;;;;;13.00;9.50;;;;;2.88;89.79;100363.41;4965242;28;47284;-64
2022/04/01 09:30:26;;;;;;;;;24.25;20.50;;;;;2.90;88.92;100376.22;4964219;27;45322;-64
2022/04/01 09:32:57;;;;;;;;;17.50;16.00;;;;;2.95;91.10;100356.53;4977291;28;45445;-62
2022/04/01 09:35:26;;;;;;;;;18.00;11.75;;;;;3.02;89.22;100366.81;4976959;28;45216;-62
2022/04/01 09:37:58;;;;;;;;;17.25;17.25;;;;;3.03;89.95;100353.09;4977337;28;47173;-62
2022/04/01 09:40:24;;;;;;;;;12.50;10.75;;;;;3.03;88.21;100372.78;4977117;28;46230;-62
2022/04/01 09:42:52;;;;;;;;;18.25;13.75;;;;;3.06;88.94;100362.50;4977054;28;45382;-62
2022/04/01 09:45:30;;;;;;;;;13.50;12.00;;;;;3.12;88.93;100364.19;4977027;28;45566;-62
2022/04/01 09:48:06;;;;;;;;;13.50;12.50;;;;;3.17;89.95;100375.28;4976889;28;46230;-62
2022/04/01 09:50:34;;;;;;;;;12.00;11.00;;;;;3.16;87.63;100382.13;4976833;28;45707;-63
2022/04/01 09:53:07;;;;;;;;;9.00;8.00;;;;;3.17;89.52;100376.16;4976935;28;45289;-63
2022/04/01 09:55:43;;;;;;;;;16.75;11.00;;;;;3.17;89.49;100393.25;4976931;28;45460;-62
2022/04/01 09:58:09;;;;;;;;;13.75;10.00;;;;;3.14;89.64;100399.28;4976287;28;46204;-62
2022/04/01 10:00:37;;;;;;;;;13.50;13.50;;;;;3.16;89.03;100399.25;4977118;28;45707;-63
2022/04/01 10:03:03;;;;;;;;;14.50;14.00;;;;;3.19;90.06;100400.09;4976783;28;45326;-62
2022/04/01 10:05:29;;;;;;;;;17.00;15.25;;;;;3.14;88.36;100406.97;4976783;28;45300;-62
2022/04/01 10:07:57;;;;;;;;;22.75;18.00;;;;;3.20;90.22;100404.38;4976654;28;46515;-61
2022/04/01 10:10:25;;;;;;;;;22.25;17.75;;;;;3.31;91.41;100405.22;4976508;28;45750;-63
2022/04/01 10:12:53;;;;;;;;;17.25;11.00;;;;;3.30;89.44;100402.66;4976441;28;45291;-63
2022/04/01 10:15:19;;;;;;;;;8.50;6.50;;;;;3.28;87.42;100422.34;4976540;28;45272;-62
2022/04/01 10:17:45;;;;;;;;;11.75;9.25;;;;;3.30;89.25;100403.50;4976517;28;46724;-65
2022/04/01 10:20:13;;;;;;;;;18.50;14.50;;;;;3.33;90.45;100402.63;4980431;28;45791;-64
2022/04/01 10:22:41;;;;;;;;;9.25;9.25;;;;;3.33;88.34;100411.19;4976434;28;45347;-63
2022/04/01 10:25:16;;;;;;;;;18.50;18.50;;;;;3.38;87.99;100408.59;4976485;28;45173;-64
2022/04/01 10:27:47;;;;;;;;;14.25;11.50;;;;;3.37;86.80;100417.16;4966013;28;45444;-62
2022/04/01 10:30:15;;;;;;;;;15.25;14.25;;;;;3.33;86.10;100423.19;4981405;28;45215;-63
2022/04/01 10:32:42;;;;;;;;;9.00;7.75;;;;;3.26;84.38;100434.34;4979405;28;45347;-63
2022/04/01 10:35:21;;;;;;;;;14.50;14.00;;;;;3.27;87.23;100431.75;4979241;28;45284;-63
2022/04/01 10:37:53;;;;;;;;;19.00;14.75;;;;;3.38;89.06;100418.88;4979401;28;46113;-63
2022/04/01 10:40:18;;;;;;;;;18.00;15.50;;;;;3.36;86.66;100415.47;4979429;28;45789;-63
2022/04/01 10:42:46;;;;;;;;;15.50;11.00;;;;;3.34;85.76;100430.88;4979381;28;45429;-63
2022/04/01 10:45:14;;;;;;;;;17.75;14.00;;;;;3.44;87.09;100438.56;4979417;28;45344;-63
2022/04/01 10:53:37;;;;;;;;;15.25;15.25;;;;;3.56;87.53;100439.38;4979210;28;45235;-63
2022/04/01 10:56:28;;;;;;;;;15.25;11.75;;;;;3.53;86.01;100439.38;4978564;28;45234;-62
2022/04/01 10:59:23;;;;;;;;;8.25;7.75;;;;;3.52;86.18;100441.97;4979091;28;45614;-62
2022/04/01 11:01:51;;;;;;;;;20.00;16.25;;;;;3.52;86.73;100442.81;4968984;28;45426;-63
2022/04/01 11:04:16;;;;;;;;;14.75;13.50;;;;;3.55;86.45;100436.81;4978946;28;45578;-64
2022/04/01 11:07:05;;;;;;;;;10.33;10.33;;;;;3.55;86.66;100459.91;4979333;28;45240;-64
2022/04/01 11:09:49;;;;;;;;;14.75;13.75;;;;;3.57;86.60;100445.34;4978533;28;46274;-63
2022/04/01 11:12:14;;;;;;;;;23.00;17.75;;;;;3.66;83.61;100435.91;4979066;27;45270;-64
2022/04/01 11:15:10;;;;;;;;;20.67;15.00;;;;;3.68;83.11;100453.88;4979158;28;45205;-63
2022/04/01 11:17:35;;;;;;;;;20.00;16.50;;;;;3.66;86.29;100456.47;4978537;28;45311;-63
2022/04/01 11:20:07;;;;;;;;;20.00;17.00;;;;;3.71;86.92;100456.44;4966990;28;46167;-64
2022/04/01 11:22:42;;;;;;;;;15.75;11.25;;;;;3.73;88.58;100461.56;4977615;28;45622;-64
2022/04/01 11:25:14;;;;;;;;;10.25;6.00;;;;;3.72;85.83;100470.16;4978514;28;45277;-64
2022/04/01 11:28:11;;;;;;;;;21.25;17.00;;;;;3.74;86.13;100476.97;4967884;28;45334;-63
2022/04/01 11:30:51;;;;;;;;;18.75;16.50;;;;;3.68;85.11;100471.88;4965777;28;47407;-63
2022/04/01 11:33:22;;;;;;;;;14.00;12.00;;;;;3.70;85.94;100480.44;4978336;28;45846;-63
2022/04/01 11:35:53;;;;;;;;;22.00;16.00;;;;;3.73;84.95;100475.28;4979051;28;45356;-63
2022/04/01 11:38:21;;;;;;;;;14.75;11.25;;;;;3.69;83.05;100485.59;4978320;28;45392;-63
2022/04/01 11:40:49;;;;;;;;;14.25;10.00;;;;;3.59;82.14;100477.88;4978219;28;46318;-63
2022/04/01 11:43:20;;;;;;;;;20.75;15.00;;;;;3.62;84.90;100487.31;4978236;28;45413;-63
2022/04/01 11:45:57;;;;;;;;;16.00;15.00;;;;;3.63;86.61;100484.75;4979084;28;45351;-63
2022/04/01 11:48:28;;;;;;;;;17.00;13.25;;;;;3.62;82.89;100495.88;4977293;28;45483;-63
2022/04/01 11:51:00;;;;;;;;;12.25;9.50;;;;;3.63;85.01;100515.59;4978340;28;46214;-63
2022/04/01 11:53:30;;;;;;;;;13.75;12.25;;;;;3.63;85.93;100509.59;4966376;28;45279;-63